Time;durP1;ratioP1;P1;durP2;ratioP2;P2;SDS_P1;SDS_P2;PMS_P1;PMS_P2;Temp;Humidity;BMP_temperature;BMP_pressure;BME280_temperature;BME280_humidity;BME280_pressure;Samples;Min_cycle;Max_cycle;Signal;HPM_P1;HPM_P2
2023/03/20 00:01:57;;;;;;;3.2;2.4;;;;;;;9.19;93.17383;939.7346;;;;
2023/03/20 00:04:24;;;;;;;1.9;1.7;;;;;;;9.17;92.27051;939.6389;;;;
2023/03/20 00:06:48;;;;;;;2.5;1.8;;;;;;;9.09;92.21875;939.7266;;;;
2023/03/20 00:09:13;;;;;;;2.7;2;;;;;;;9;92.19922;939.6873;;;;
2023/03/20 00:11:42;;;;;;;1.8;1.5;;;;;;;8.94;92.21973;939.6236;;;;
2023/03/20 00:14:10;;;;;;;2.1;1.7;;;;;;;8.86;92.53223;939.6983;;;;
2023/03/20 00:16:35;;;;;;;2.9;1.5;;;;;;;8.86;91.96582;939.7231;;;;
2023/03/20 00:19:02;;;;;;;2.4;2;;;;;;;8.78;92.09473;939.7823;;;;
2023/03/20 00:21:28;;;;;;;2.2;1.5;;;;;;;8.76;92.09277;939.7742;;;;
2023/03/20 00:23:56;;;;;;;2.5;1.6;;;;;;;8.77;92.12695;939.7941;;;;
2023/03/20 00:26:27;;;;;;;4.1;2.8;;;;;;;8.83;91.9375;939.8155;;;;
2023/03/20 00:28:56;;;;;;;7.8;4.3;;;;;;;8.86;91.75;939.7905;;;;
2023/03/20 00:31:28;;;;;;;4.1;2;;;;;;;8.8;91.28125;939.8145;;;;
2023/03/20 00:34:06;;;;;;;4.8;2.5;;;;;;;8.78;91.45801;939.772;;;;
2023/03/20 00:36:44;;;;;;;4.9;1.6;;;;;;;8.81;91.94238;939.7769;;;;
2023/03/20 00:39:17;;;;;;;2.8;1.3;;;;;;;8.77;92.26465;939.7615;;;;
2023/03/20 00:41:45;;;;;;;2.9;1.9;;;;;;;8.8;92.02051;939.7661;;;;
2023/03/20 00:44:16;;;;;;;3.7;1.8;;;;;;;8.86;91.81641;939.7755;;;;
2023/03/20 00:46:44;;;;;;;1.7;1.5;;;;;;;8.83;91.66406;939.8289;;;;
2023/03/20 00:49:09;;;;;;;1.7;1.3;;;;;;;8.77;91.91016;939.7782;;;;
2023/03/20 00:51:39;;;;;;;2.2;1.1;;;;;;;8.75;91.83887;939.7477;;;;
2023/03/20 00:55:15;;;;;;;1.3;1.2;;;;;;;8.7;92.21484;939.757;;;;
2023/03/20 00:57:40;;;;;;;1.2;1.1;;;;;;;8.58;92.6543;939.7481;;;;
2023/03/20 01:00:05;;;;;;;2.4;1.1;;;;;;;8.66;92.53516;939.7271;;;;
2023/03/20 01:02:31;;;;;;;1.7;1.3;;;;;;;8.59;92.66797;939.7483;;;;
2023/03/20 01:04:56;;;;;;;1.7;1.3;;;;;;;8.63;93.02051;939.7456;;;;
2023/03/20 01:11:02;;;;;;;1.9;1.3;;;;;;;8.46;93.9375;939.7277;;;;
2023/03/20 01:13:27;;;;;;;2.4;1.2;;;;;;;8.56;94.09375;939.6223;;;;
2023/03/20 01:15:57;;;;;;;1.5;1.3;;;;;;;8.62;94.00488;939.6597;;;;
2023/03/20 01:18:35;;;;;;;1.2;1.1;;;;;;;8.63;93.55273;939.6867;;;;
2023/03/20 01:21:04;;;;;;;1.5;1.1;;;;;;;8.52;93.1543;939.6797;;;;
2023/03/20 01:23:29;;;;;;;1.9;1.2;;;;;;;8.61;93.48047;939.6797;;;;
2023/03/20 01:25:56;;;;;;;0.9;0.9;;;;;;;8.54;91.69336;939.6705;;;;
2023/03/20 01:28:21;;;;;;;1.4;1.3;;;;;;;8.5;93.18262;939.6649;;;;
2023/03/20 01:30:46;;;;;;;1.4;1.3;;;;;;;8.52;93.37012;939.6694;;;;
2023/03/20 01:33:13;;;;;;;2;1.8;;;;;;;8.65;93.46777;939.6284;;;;
2023/03/20 01:35:38;;;;;;;1.9;1.3;;;;;;;8.69;92.99805;939.6522;;;;
2023/03/20 01:38:03;;;;;;;1.4;1.1;;;;;;;8.6;92.72852;939.6382;;;;
2023/03/20 01:40:28;;;;;;;1.5;1.3;;;;;;;8.5;93.19336;939.6934;;;;
2023/03/20 01:42:53;;;;;;;1.7;1.4;;;;;;;8.44;94.07031;939.6694;;;;
2023/03/20 01:45:23;;;;;;;1.7;1.4;;;;;;;8.43;94.74805;939.6398;;;;
2023/03/20 01:47:50;;;;;;;1.6;1.5;;;;;;;8.46;94.97168;939.6761;;;;
2023/03/20 01:50:15;;;;;;;1.6;1.4;;;;;;;8.53;95.04297;939.5845;;;;
2023/03/20 01:53:14;;;;;;;1.6;1.3;;;;;;;8.49;95.0918;939.5513;;;;
2023/03/20 01:55:39;;;;;;;1.6;1.5;;;;;;;8.51;95.33594;939.5645;;;;
2023/03/20 01:58:04;;;;;;;1.8;1.4;;;;;;;8.52;95.16504;939.5606;;;;
2023/03/20 02:00:31;;;;;;;1.3;1.2;;;;;;;8.34;94.75098;939.5823;;;;
2023/03/20 02:02:56;;;;;;;1.4;1.3;;;;;;;8.36;94.8252;939.5105;;;;
2023/03/20 02:05:25;;;;;;;1.4;1.3;;;;;;;8.32;94.98535;939.5006;;;;
2023/03/20 02:07:50;;;;;;;1.2;1.1;;;;;;;8.36;95.10645;939.4866;;;;
2023/03/20 02:10:16;;;;;;;1.8;1.4;;;;;;;8.44;95.10254;939.4796;;;;
2023/03/20 02:15:07;;;;;;;1.6;1.2;;;;;;;8.47;94.5625;939.4945;;;;
2023/03/20 02:17:34;;;;;;;1.1;1;;;;;;;8.33;95.14453;939.53;;;;
2023/03/20 02:19:59;;;;;;;1.4;1.3;;;;;;;8.42;95.10938;939.4951;;;;
2023/03/20 02:22:24;;;;;;;2;1.7;;;;;;;8.43;94.94141;939.4883;;;;
2023/03/20 02:25:19;;;;;;;2.7;1.8;;;;;;;8.28;95.75;939.5164;;;;
2023/03/20 02:27:44;;;;;;;3.2;2;;;;;;;8.19;97.02246;939.5619;;;;
2023/03/20 02:30:10;;;;;;;2.4;1.9;;;;;;;8.18;96.94043;939.5014;;;;
2023/03/20 02:32:34;;;;;;;3.2;2.2;;;;;;;8.05;97.75195;939.5432;;;;
2023/03/20 02:35:09;;;;;;;2.1;1.9;;;;;;;8.1;97.98926;939.5538;;;;
2023/03/20 02:37:38;;;;;;;2.5;2.2;;;;;;;8.13;97.72559;939.5552;;;;
2023/03/20 02:40:04;;;;;;;2.5;2.3;;;;;;;8.1;97.8418;939.514;;;;
2023/03/20 02:42:32;;;;;;;3;2.3;;;;;;;8.07;97.94922;939.4905;;;;
2023/03/20 02:44:57;;;;;;;2.4;2.2;;;;;;;8.16;98.20801;939.4423;;;;
2023/03/20 02:47:24;;;;;;;3;2.6;;;;;;;8.21;97.70801;939.4742;;;;
2023/03/20 02:49:49;;;;;;;3;2.5;;;;;;;8.23;97.40723;939.467;;;;
2023/03/20 02:52:15;;;;;;;2.8;2.2;;;;;;;8.3;97.48926;939.4669;;;;
2023/03/20 02:54:40;;;;;;;2.7;2.1;;;;;;;8.29;97.39844;939.45;;;;
2023/03/20 02:57:05;;;;;;;2.5;2.2;;;;;;;8.23;97.27051;939.4433;;;;
2023/03/20 02:59:30;;;;;;;2.5;2.1;;;;;;;8.15;97.69531;939.4414;;;;
2023/03/20 03:01:56;;;;;;;2.2;2;;;;;;;8.17;97.6875;939.4409;;;;
2023/03/20 03:04:21;;;;;;;2.5;2.2;;;;;;;8.06;97.70898;939.4658;;;;
2023/03/20 03:06:47;;;;;;;2.3;2;;;;;;;8.02;98.6084;939.4189;;;;
2023/03/20 03:09:18;;;;;;;3.1;2.2;;;;;;;8.06;98.54883;939.4174;;;;
2023/03/20 03:11:43;;;;;;;4.2;3.1;;;;;;;8.08;98.44141;939.4384;;;;
2023/03/20 03:14:08;;;;;;;4.1;3.7;;;;;;;8.13;98.42871;939.4433;;;;
2023/03/20 03:16:56;;;;;;;3.3;3.1;;;;;;;8.17;98.41504;939.4275;;;;
2023/03/20 03:19:21;;;;;;;4;2.6;;;;;;;8.29;97.80762;939.4634;;;;
2023/03/20 03:22:02;;;;;;;2.4;2.2;;;;;;;8.32;97.2002;939.4117;;;;
2023/03/20 03:24:31;;;;;;;2.9;2.7;;;;;;;8.22;97.3125;939.3804;;;;
2023/03/20 03:26:56;;;;;;;2.9;2.5;;;;;;;8.2;97.54688;939.4169;;;;
2023/03/20 03:29:23;;;;;;;3.3;3;;;;;;;8.19;97.66895;939.4128;;;;
2023/03/20 03:31:47;;;;;;;2.8;2.3;;;;;;;8.05;98.10449;939.4116;;;;
2023/03/20 03:34:12;;;;;;;2.3;2.1;;;;;;;8.09;98.1123;939.3362;;;;
2023/03/20 03:36:37;;;;;;;1.8;1.7;;;;;;;8.13;97.39551;939.4267;;;;
2023/03/20 03:39:05;;;;;;;2.4;2.1;;;;;;;7.95;97.93359;939.4631;;;;
2023/03/20 03:41:30;;;;;;;3.3;2.2;;;;;;;7.96;98.86621;939.533;;;;
2023/03/20 03:43:56;;;;;;;2.4;2.2;;;;;;;8;99.14941;939.5499;;;;
2023/03/20 03:46:24;;;;;;;2.3;2.1;;;;;;;8;98.70703;939.5656;;;;
2023/03/20 03:48:49;;;;;;;1.9;1.6;;;;;;;7.89;98.40918;939.5872;;;;
2023/03/20 03:51:14;;;;;;;1.9;1.8;;;;;;;7.94;98.93066;939.593;;;;
2023/03/20 03:53:39;;;;;;;2.3;1.9;;;;;;;7.99;98.72559;939.5845;;;;
2023/03/20 03:56:04;;;;;;;2.2;2;;;;;;;7.93;98.66699;939.6704;;;;
2023/03/20 03:58:29;;;;;;;3.3;2.2;;;;;;;7.89;98.56641;939.7139;;;;
2023/03/20 04:02:41;;;;;;;3.7;2.4;;;;;;;7.8;99.58008;939.7156;;;;
2023/03/20 04:05:06;;;;;;;2.3;2.1;;;;;;;7.91;99.47852;939.6335;;;;
2023/03/20 04:07:31;;;;;;;2.5;2.1;;;;;;;8.01;98.76563;939.7509;;;;
2023/03/20 04:09:58;;;;;;;2.8;2.5;;;;;;;7.94;97.85059;939.7522;;;;
2023/03/20 04:12:23;;;;;;;4.4;2.7;;;;;;;7.82;98.88086;939.7553;;;;
2023/03/20 04:14:49;;;;;;;3.8;2.8;;;;;;;7.73;99.10938;939.7942;;;;
2023/03/20 04:17:14;;;;;;;5.1;2.8;;;;;;;7.78;99.58691;939.8494;;;;
2023/03/20 04:19:43;;;;;;;2.5;2.3;;;;;;;7.86;99.34277;939.8472;;;;
2023/03/20 04:22:09;;;;;;;4.6;2.9;;;;;;;8;98.67285;939.9075;;;;
2023/03/20 04:24:34;;;;;;;3.1;2.5;;;;;;;8.09;98.37305;939.9604;;;;
2023/03/20 04:27:01;;;;;;;2.7;1.9;;;;;;;8.1;98.13867;939.9416;;;;
2023/03/20 04:29:27;;;;;;;1.5;1.4;;;;;;;8.08;97.93945;939.8674;;;;
2023/03/20 04:31:52;;;;;;;2.6;1.6;;;;;;;8.05;97.92285;939.8968;;;;
2023/03/20 04:34:23;;;;;;;3.4;2.2;;;;;;;8.07;97.38184;939.9702;;;;
2023/03/20 04:37:07;;;;;;;2.6;2.1;;;;;;;8.06;97.44727;939.9694;;;;
2023/03/20 04:39:35;;;;;;;15.1;10;;;;;;;7.95;97.12793;939.9222;;;;
2023/03/20 04:41:59;;;;;;;8.1;6;;;;;;;8.05;96.91211;939.9128;;;;
2023/03/20 04:44:26;;;;;;;2.3;2;;;;;;;8;96.50293;939.9494;;;;
2023/03/20 04:46:52;;;;;;;3.6;2.8;;;;;;;8.04;96.7627;940.0006;;;;
2023/03/20 04:49:20;;;;;;;3.7;2.8;;;;;;;8.11;96.42676;940.0139;;;;
2023/03/20 04:51:46;;;;;;;2.1;1.9;;;;;;;8.18;96.36328;940.0662;;;;
2023/03/20 04:54:12;;;;;;;2.6;1.9;;;;;;;8.23;95.99902;940.0223;;;;
2023/03/20 04:56:41;;;;;;;3.8;2.9;;;;;;;8.23;96.68262;939.9487;;;;
2023/03/20 04:59:06;;;;;;;2.5;2.3;;;;;;;8.21;96.69727;940.0025;;;;
2023/03/20 05:01:34;;;;;;;3.5;2.8;;;;;;;8.21;96.04004;940.0022;;;;
2023/03/20 05:07:12;;;;;;;1.1;1.1;;;;;;;8;93.52832;940.0818;;;;
2023/03/20 05:09:37;;;;;;;1.5;1.4;;;;;;;8.09;94.37695;940.0673;;;;
2023/03/20 05:12:04;;;;;;;2.3;2.1;;;;;;;8.06;94.05371;940.0772;;;;
2023/03/20 05:14:30;;;;;;;4.4;3.8;;;;;;;8.11;94.51953;940.1108;;;;
2023/03/20 05:16:57;;;;;;;10.6;8.2;;;;;;;8.15;94.88867;940.0995;;;;
2023/03/20 05:19:22;;;;;;;2.5;2.3;;;;;;;8.14;94.95703;940.0526;;;;
2023/03/20 05:21:50;;;;;;;2.1;1.7;;;;;;;8.14;94.80957;940.0629;;;;
2023/03/20 05:24:15;;;;;;;2.2;2;;;;;;;8.17;94.82813;940.093;;;;
2023/03/20 05:26:42;;;;;;;10.1;3;;;;;;;8.15;95.24219;940.1076;;;;
2023/03/20 05:29:07;;;;;;;3.7;1.7;;;;;;;8.14;94.75195;940.0916;;;;
2023/03/20 05:31:34;;;;;;;2.2;2;;;;;;;8.17;94.39453;940.1715;;;;
2023/03/20 05:34:04;;;;;;;2.3;2.1;;;;;;;8.14;94.29785;940.1953;;;;
2023/03/20 05:36:32;;;;;;;2.4;1.9;;;;;;;8.08;95.12598;940.1783;;;;
2023/03/20 05:38:57;;;;;;;1.6;1.5;;;;;;;8.11;95.08496;940.197;;;;
2023/03/20 05:41:23;;;;;;;1.9;1.7;;;;;;;8.11;95.00781;940.2028;;;;
2023/03/20 05:43:49;;;;;;;2.3;1.8;;;;;;;8.12;95.18945;940.233;;;;
2023/03/20 05:46:15;;;;;;;2.3;1.8;;;;;;;8.08;95.23828;940.2512;;;;
2023/03/20 05:48:41;;;;;;;1.8;1.7;;;;;;;8.01;95.83496;940.3508;;;;
2023/03/20 05:51:07;;;;;;;1.6;1.5;;;;;;;8;96.61621;940.4012;;;;
2023/03/20 05:53:35;;;;;;;1.6;1.5;;;;;;;8.03;96.74707;940.3642;;;;
2023/03/20 05:56:00;;;;;;;2;1.7;;;;;;;8.02;96.6543;940.4037;;;;
2023/03/20 05:58:27;;;;;;;1.7;1.6;;;;;;;7.98;96.89551;940.4556;;;;
2023/03/20 06:00:52;;;;;;;2.9;1.6;;;;;;;8.05;96.82129;940.3949;;;;
2023/03/20 06:03:24;;;;;;;1.7;1.6;;;;;;;8.15;96.51465;940.4129;;;;
2023/03/20 06:05:52;;;;;;;2;1.8;;;;;;;8.17;95.96191;940.4713;;;;
2023/03/20 06:08:17;;;;;;;6.7;3.4;;;;;;;8.13;95.55664;940.4847;;;;
2023/03/20 06:10:46;;;;;;;4.7;3;;;;;;;8.15;95.79883;940.5176;;;;
2023/03/20 06:13:12;;;;;;;4;2.6;;;;;;;8.18;95.74805;940.5468;;;;
2023/03/20 06:15:37;;;;;;;3;2.7;;;;;;;8.22;95.71289;940.5773;;;;
2023/03/20 06:18:04;;;;;;;3.6;2.4;;;;;;;8.26;95.41602;940.5466;;;;
2023/03/20 06:20:29;;;;;;;3.5;2.8;;;;;;;8.34;95.30762;940.6445;;;;
2023/03/20 06:22:57;;;;;;;3.9;2.6;;;;;;;8.38;95.08789;940.6453;;;;
2023/03/20 06:25:22;;;;;;;2.4;2.2;;;;;;;8.31;94.63086;940.642;;;;
2023/03/20 06:27:52;;;;;;;2.6;2.3;;;;;;;8.35;94.81152;940.5567;;;;
2023/03/20 06:30:23;;;;;;;3.5;2.4;;;;;;;8.38;94.82715;940.6262;;;;
2023/03/20 06:32:49;;;;;;;3.1;2.7;;;;;;;8.32;94.66699;940.6478;;;;
2023/03/20 06:35:48;;;;;;;2.7;2.5;;;;;;;8.38;94.62402;940.6447;;;;
2023/03/20 06:38:12;;;;;;;3.2;2.6;;;;;;;8.37;95.24512;940.6436;;;;
2023/03/20 06:40:44;;;;;;;3.6;3;;;;;;;8.38;95.52148;940.6733;;;;
2023/03/20 06:43:11;;;;;;;3.9;3.3;;;;;;;8.52;95.47266;940.6835;;;;
2023/03/20 06:45:36;;;;;;;3;2.6;;;;;;;8.58;94.86133;940.6887;;;;
2023/03/20 06:48:05;;;;;;;3.1;2.8;;;;;;;8.69;94.88672;940.7136;;;;
2023/03/20 06:50:30;;;;;;;2.8;2.6;;;;;;;8.81;94.7627;940.7401;;;;
2023/03/20 06:52:58;;;;;;;3;2.7;;;;;;;8.89;94.41699;940.79;;;;
2023/03/20 06:55:23;;;;;;;3;2.4;;;;;;;8.88;93.73242;940.8105;;;;
2023/03/20 06:57:50;;;;;;;2.4;2.2;;;;;;;8.87;93.15039;940.8151;;;;
2023/03/20 07:00:15;;;;;;;2.9;2.3;;;;;;;8.85;92.77148;940.7861;;;;
2023/03/20 07:02:45;;;;;;;2.9;1.9;;;;;;;8.79;92.2666;940.8044;;;;
2023/03/20 07:05:16;;;;;;;1.9;1.8;;;;;;;8.7;92.34082;940.8217;;;;
2023/03/20 07:07:45;;;;;;;2.4;2.2;;;;;;;8.71;93.18359;940.8147;;;;
2023/03/20 07:10:11;;;;;;;1.9;1.8;;;;;;;8.79;92.45996;940.6916;;;;
2023/03/20 07:12:37;;;;;;;2.4;1.9;;;;;;;8.94;93.22266;940.8189;;;;
2023/03/20 07:15:03;;;;;;;2.9;2.4;;;;;;;9.1;92.1543;940.8016;;;;
2023/03/20 07:17:28;;;;;;;2.7;2.5;;;;;;;9.24;92.3291;940.7957;;;;
2023/03/20 07:19:59;;;;;;;3.7;2;;;;;;;9.28;90.44922;940.7947;;;;
2023/03/20 07:22:24;;;;;;;1.8;1.4;;;;;;;9.36;88.29102;940.8074;;;;
2023/03/20 07:24:54;;;;;;;1.3;1.2;;;;;;;9.77;85.79883;940.8063;;;;
2023/03/20 07:27:24;;;;;;;1.9;1.3;;;;;;;10.16;84.65723;940.8583;;;;
2023/03/20 07:29:54;;;;;;;1.6;1.3;;;;;;;10.16;83.4707;940.7119;;;;
2023/03/20 07:32:19;;;;;;;1.5;1.3;;;;;;;9.88;81.36426;940.8401;;;;
2023/03/20 07:34:53;;;;;;;1.5;1.4;;;;;;;9.83;82.85938;940.8695;;;;
2023/03/20 07:37:25;;;;;;;1;1;;;;;;;10.39;81.37988;940.8184;;;;
2023/03/20 07:39:51;;;;;;;1.2;0.8;;;;;;;10.2;79.63281;940.8247;;;;
2023/03/20 07:42:21;;;;;;;1.2;1.1;;;;;;;10.22;79.82031;940.8215;;;;
2023/03/20 07:44:46;;;;;;;2.8;2.3;;;;;;;10.31;80.04102;940.877;;;;
2023/03/20 07:47:15;;;;;;;1.5;0.9;;;;;;;10.73;80.41699;940.8784;;;;
2023/03/20 07:49:43;;;;;;;1.7;0.8;;;;;;;10.75;78.39844;940.8676;;;;
2023/03/20 07:52:12;;;;;;;1.3;1.1;;;;;;;11.11;78.70313;940.9219;;;;
2023/03/20 07:54:37;;;;;;;1.2;1.1;;;;;;;11.28;78.10547;940.9266;;;;
2023/03/20 07:57:06;;;;;;;1.8;1.2;;;;;;;11.25;78.39648;940.907;;;;
2023/03/20 07:59:36;;;;;;;1.8;1.4;;;;;;;11.31;78.00586;940.9659;;;;
2023/03/20 08:02:01;;;;;;;1.3;1.2;;;;;;;11.8;76.11621;940.9389;;;;
2023/03/20 08:04:31;;;;;;;1;0.9;;;;;;;11.84;75.08984;940.9938;;;;
2023/03/20 08:06:56;;;;;;;1.1;1;;;;;;;11.74;75.48535;940.9102;;;;
2023/03/20 08:09:28;;;;;;;1.2;1.1;;;;;;;11.87;74.9707;940.8998;;;;
2023/03/20 08:11:56;;;;;;;1.5;1.4;;;;;;;11.37;75.58203;940.835;;;;
2023/03/20 08:14:27;;;;;;;1.4;1.3;;;;;;;11.35;76.34375;940.8205;;;;
2023/03/20 08:16:52;;;;;;;1.6;1.5;;;;;;;11.41;77.16699;940.7999;;;;
2023/03/20 08:19:22;;;;;;;1;1;;;;;;;11.99;73.81055;940.7045;;;;
2023/03/20 08:21:54;;;;;;;1.5;1.2;;;;;;;12.7;72.3252;940.6616;;;;
2023/03/20 08:24:26;;;;;;;3.5;1.6;;;;;;;13.32;69.87695;940.738;;;;
2023/03/20 08:26:51;;;;;;;1.4;1.3;;;;;;;12.78;69.26172;940.7746;;;;
2023/03/20 08:29:20;;;;;;;1.9;1.5;;;;;;;13.43;69.87207;940.785;;;;
2023/03/20 08:31:45;;;;;;;0.7;0.7;;;;;;;13.29;68.02246;940.7299;;;;
2023/03/20 08:34:10;;;;;;;1;1;;;;;;;13.73;66.37793;940.789;;;;
2023/03/20 08:36:35;;;;;;;0.9;0.9;;;;;;;14.16;64.80762;940.7609;;;;
2023/03/20 08:39:07;;;;;;;0.8;0.8;;;;;;;14.65;62.17285;940.7719;;;;
2023/03/20 08:41:37;;;;;;;0.8;0.8;;;;;;;14.79;58.57129;940.7371;;;;
2023/03/20 08:44:09;;;;;;;0.8;0.8;;;;;;;14.77;61.45117;940.7332;;;;
2023/03/20 08:46:38;;;;;;;0.7;0.7;;;;;;;14.88;57.70703;940.7339;;;;
2023/03/20 08:49:04;;;;;;;1;0.7;;;;;;;14.99;59.9834;940.6854;;;;
2023/03/20 08:51:30;;;;;;;0.8;0.8;;;;;;;16.18;56.72363;940.6523;;;;
2023/03/20 08:53:55;;;;;;;0.8;0.8;;;;;;;17.15;53.24316;940.6064;;;;
2023/03/20 08:56:24;;;;;;;0.7;0.7;;;;;;;17.66;53.6416;940.529;;;;
2023/03/20 08:58:56;;;;;;;0.9;0.9;;;;;;;18.83;49.29395;940.5039;;;;
2023/03/20 09:01:21;;;;;;;1.9;1;;;;;;;19.92;47.53711;940.4692;;;;
2023/03/20 09:03:51;;;;;;;1.9;1.2;;;;;;;17.45;54.0459;940.4099;;;;
2023/03/20 09:06:20;;;;;;;1.9;1.1;;;;;;;16.2;54.19141;940.4745;;;;
2023/03/20 09:08:45;;;;;;;2.9;1;;;;;;;19.51;50.47559;940.3531;;;;
2023/03/20 09:11:14;;;;;;;1.8;1;;;;;;;20.85;46.81738;940.252;;;;
2023/03/20 09:13:39;;;;;;;1.3;0.9;;;;;;;21.63;43.375;940.2208;;;;
2023/03/20 09:16:07;;;;;;;0.5;0.4;;;;;;;21.84;40.85352;940.2399;;;;
2023/03/20 09:18:32;;;;;;;1.2;0.6;;;;;;;21.79;40.68555;940.2296;;;;
2023/03/20 09:21:00;;;;;;;0.4;0.4;;;;;;;23.06;37.16016;940.1998;;;;
2023/03/20 09:23:24;;;;;;;0.4;0.4;;;;;;;21.95;40.28906;940.1859;;;;
2023/03/20 09:25:53;;;;;;;0.4;0.4;;;;;;;23.86;37.66113;940.2163;;;;
2023/03/20 09:28:18;;;;;;;2.3;0.4;;;;;;;24.76;36.51074;940.1462;;;;
2023/03/20 09:30:46;;;;;;;0.3;0.3;;;;;;;24.53;35.47852;940.176;;;;
2023/03/20 09:33:13;;;;;;;0.3;0.3;;;;;;;24.2;38.13867;940.1232;;;;
2023/03/20 09:35:38;;;;;;;0.4;0.4;;;;;;;22.88;38.31934;940.0654;;;;
2023/03/20 09:38:07;;;;;;;0.7;0.4;;;;;;;23.42;36.53125;940.0975;;;;
2023/03/20 09:40:31;;;;;;;0.3;0.3;;;;;;;23.38;37.10352;940.1568;;;;
2023/03/20 09:42:56;;;;;;;0.8;0.4;;;;;;;23.96;36.69336;940.0847;;;;
2023/03/20 09:45:21;;;;;;;0.9;0.5;;;;;;;21.63;42.86035;940.0076;;;;
2023/03/20 09:47:47;;;;;;;0.4;0.4;;;;;;;21.6;41.1709;940.0464;;;;
2023/03/20 09:50:20;;;;;;;0.8;0.5;;;;;;;19.74;44.69531;940.1514;;;;
2023/03/20 09:52:41;;;;;;;0.4;0.3;;;;;;;18.49;46.55566;940.1101;;;;
2023/03/20 09:55:06;;;;;;;0.5;0.5;;;;;;;17.47;51.15918;940.177;;;;
2023/03/20 09:57:31;;;;;;;0.6;0.6;;;;;;;16.86;51.66797;940.2579;;;;
2023/03/20 09:59:56;;;;;;;0.9;0.9;;;;;;;16.13;56.28809;940.1923;;;;
2023/03/20 10:02:23;;;;;;;1;0.7;;;;;;;15.81;56.6748;940.2714;;;;
2023/03/20 10:04:46;;;;;;;0.6;0.6;;;;;;;15.44;58.12891;940.2958;;;;
2023/03/20 10:07:11;;;;;;;0.7;0.7;;;;;;;15.06;59.16309;940.3301;;;;
2023/03/20 10:09:36;;;;;;;0.8;0.8;;;;;;;15.05;59.18359;940.3422;;;;
2023/03/20 10:12:07;;;;;;;0.9;0.7;;;;;;;14.66;60.42188;940.3511;;;;
2023/03/20 10:14:33;;;;;;;0.6;0.6;;;;;;;14.56;60.76563;940.3054;;;;
2023/03/20 10:16:59;;;;;;;0.7;0.7;;;;;;;14.34;61.99023;940.2708;;;;
2023/03/20 10:19:25;;;;;;;0.7;0.7;;;;;;;13.94;63.98145;940.2058;;;;
2023/03/20 10:21:50;;;;;;;1.5;0.7;;;;;;;14.04;64.37598;940.2405;;;;
2023/03/20 10:24:18;;;;;;;0.8;0.8;;;;;;;14.02;63.78613;940.3038;;;;
2023/03/20 10:26:40;;;;;;;0.7;0.7;;;;;;;14.25;63.02441;940.3191;;;;
2023/03/20 10:29:09;;;;;;;0.7;0.7;;;;;;;14.27;63.74121;940.3094;;;;
2023/03/20 10:31:34;;;;;;;1.1;1;;;;;;;14.13;64.97754;940.274;;;;
2023/03/20 10:33:59;;;;;;;1;0.9;;;;;;;14.26;62.6582;940.2181;;;;
2023/03/20 10:36:30;;;;;;;1;0.8;;;;;;;13.98;62.98535;940.2001;;;;
2023/03/20 10:38:55;;;;;;;1.1;1;;;;;;;13.94;63.87793;940.1818;;;;
2023/03/20 10:41:25;;;;;;;1.3;1.1;;;;;;;13.9;64.22754;940.1666;;;;
2023/03/20 10:43:50;;;;;;;0.8;0.8;;;;;;;14.63;61.97363;940.1316;;;;
2023/03/20 10:46:15;;;;;;;1;1;;;;;;;14.87;63.32227;940.1414;;;;
2023/03/20 10:48:44;;;;;;;0.9;0.9;;;;;;;14.67;63.52344;939.9791;;;;
2023/03/20 10:51:10;;;;;;;2;1.1;;;;;;;14.43;63.12109;939.9548;;;;
2023/03/20 10:53:34;;;;;;;2;1;;;;;;;14.3;63.00977;939.9256;;;;
2023/03/20 10:56:02;;;;;;;1.5;1.1;;;;;;;14.2;64.14648;939.8943;;;;
2023/03/20 10:58:28;;;;;;;0.8;0.7;;;;;;;13.97;63.98633;939.9031;;;;
2023/03/20 11:00:53;;;;;;;0.8;0.8;;;;;;;14.1;63.74023;939.8873;;;;
2023/03/20 11:03:19;;;;;;;0.7;0.7;;;;;;;13.91;63.4707;939.8568;;;;
2023/03/20 11:05:44;;;;;;;0.7;0.7;;;;;;;14.03;62.54395;939.9995;;;;
2023/03/20 11:08:10;;;;;;;0.8;0.6;;;;;;;13.9;63.97559;940.0217;;;;
2023/03/20 11:10:35;;;;;;;0.6;0.6;;;;;;;13.8;63.68555;940.035;;;;
2023/03/20 11:13:00;;;;;;;0.8;0.7;;;;;;;13.75;63.32031;939.9975;;;;
2023/03/20 11:15:32;;;;;;;1.1;0.8;;;;;;;13.69;64.35938;939.9503;;;;
2023/03/20 11:17:57;;;;;;;0.6;0.6;;;;;;;13.86;63.85547;939.9001;;;;
2023/03/20 11:20:25;;;;;;;0.6;0.6;;;;;;;14.09;63.6582;939.8072;;;;
2023/03/20 11:22:50;;;;;;;0.9;0.8;;;;;;;13.99;64.19629;939.8647;;;;
2023/03/20 11:25:21;;;;;;;2.4;0.9;;;;;;;13.99;62.56348;939.8519;;;;
2023/03/20 11:27:48;;;;;;;1.3;1;;;;;;;13.93;62.27734;939.9016;;;;
2023/03/20 11:30:20;;;;;;;0.9;0.9;;;;;;;14.03;63.26855;939.9066;;;;
2023/03/20 11:32:45;;;;;;;1.1;0.7;;;;;;;13.68;64.99121;939.9311;;;;
2023/03/20 11:35:16;;;;;;;0.7;0.7;;;;;;;13.62;65.88867;939.8918;;;;
2023/03/20 11:37:44;;;;;;;0.8;0.8;;;;;;;13.61;64.88672;939.8588;;;;
2023/03/20 11:40:09;;;;;;;0.8;0.8;;;;;;;13.7;65.0957;939.895;;;;
2023/03/20 11:42:36;;;;;;;0.7;0.7;;;;;;;13.45;66.24316;939.8938;;;;
2023/03/20 11:45:01;;;;;;;0.7;0.7;;;;;;;13.4;65.32813;939.8223;;;;
2023/03/20 11:47:26;;;;;;;0.7;0.7;;;;;;;13.55;64.73047;939.8267;;;;
2023/03/20 11:49:51;;;;;;;0.7;0.7;;;;;;;13.63;63.15332;939.7935;;;;
2023/03/20 11:52:16;;;;;;;0.8;0.8;;;;;;;13.66;62.42188;939.827;;;;
2023/03/20 11:54:41;;;;;;;0.5;0.5;;;;;;;13.76;62.74805;939.8118;;;;
2023/03/20 11:57:06;;;;;;;0.7;0.7;;;;;;;13.46;63.78418;939.8035;;;;
2023/03/20 11:59:34;;;;;;;0.5;0.5;;;;;;;13.52;62.09277;939.8267;;;;
2023/03/20 12:02:04;;;;;;;0.5;0.5;;;;;;;13.42;62.35254;939.8162;;;;
2023/03/20 12:04:30;;;;;;;0.8;0.7;;;;;;;13.6;62.28711;939.7939;;;;
2023/03/20 12:06:58;;;;;;;1;0.6;;;;;;;13.72;62.79883;939.6598;;;;
2023/03/20 12:09:23;;;;;;;0.7;0.7;;;;;;;13.85;60.37891;939.704;;;;
2023/03/20 12:11:48;;;;;;;1.1;0.5;;;;;;;13.79;59.34668;939.5964;;;;
2023/03/20 12:14:14;;;;;;;0.8;0.8;;;;;;;14.12;60.33691;939.5974;;;;
2023/03/20 12:16:39;;;;;;;0.8;0.7;;;;;;;14.33;60.27148;939.6764;;;;
2023/03/20 12:19:09;;;;;;;0.6;0.6;;;;;;;14.44;58.7793;939.6526;;;;
2023/03/20 12:21:34;;;;;;;0.7;0.5;;;;;;;14.56;58.0459;939.6771;;;;
2023/03/20 12:24:00;;;;;;;0.7;0.7;;;;;;;15.07;56.42871;939.6035;;;;
2023/03/20 12:26:24;;;;;;;0.6;0.6;;;;;;;15.57;55.39648;939.6561;;;;
2023/03/20 12:28:51;;;;;;;0.5;0.5;;;;;;;16.57;52.92871;939.6267;;;;
2023/03/20 12:31:16;;;;;;;0.7;0.7;;;;;;;17.67;49.15039;939.6194;;;;
2023/03/20 12:33:44;;;;;;;0.9;0.8;;;;;;;17.35;51.08691;939.6721;;;;
2023/03/20 12:36:09;;;;;;;0.7;0.7;;;;;;;17.01;50.33984;939.7131;;;;
2023/03/20 12:38:35;;;;;;;0.7;0.7;;;;;;;16.24;52.01074;939.7087;;;;
2023/03/20 12:41:03;;;;;;;0.8;0.8;;;;;;;15.41;56.05762;939.6866;;;;
2023/03/20 12:43:32;;;;;;;0.7;0.7;;;;;;;15.27;56.36328;939.722;;;;
2023/03/20 12:46:01;;;;;;;3.7;0.8;;;;;;;14.9;58.42578;939.6979;;;;
2023/03/20 12:48:26;;;;;;;0.6;0.6;;;;;;;14.86;57.58984;939.7189;;;;
2023/03/20 12:50:51;;;;;;;1.1;0.8;;;;;;;14.77;57.50879;939.6822;;;;
2023/03/20 12:53:16;;;;;;;1;0.8;;;;;;;14.67;58.95898;939.7675;;;;
2023/03/20 12:55:41;;;;;;;1.1;0.8;;;;;;;14.59;59.83691;939.7763;;;;
2023/03/20 12:58:07;;;;;;;0.6;0.6;;;;;;;14.55;58.49414;939.7597;;;;
2023/03/20 13:00:32;;;;;;;1;0.9;;;;;;;14.19;59.6084;939.6741;;;;
2023/03/20 13:02:57;;;;;;;0.9;0.8;;;;;;;13.9;60.71973;939.6903;;;;
2023/03/20 13:05:22;;;;;;;0.8;0.8;;;;;;;13.49;64.00684;939.6242;;;;
2023/03/20 13:07:50;;;;;;;0.7;0.7;;;;;;;13.5;62.93945;939.6923;;;;
2023/03/20 13:10:17;;;;;;;1;0.9;;;;;;;13.52;63.99902;939.7155;;;;
2023/03/20 13:12:42;;;;;;;1.1;1;;;;;;;13.55;62.84375;939.6675;;;;
2023/03/20 13:15:07;;;;;;;1.1;0.9;;;;;;;13.6;61.06738;939.593;;;;
2023/03/20 13:17:32;;;;;;;1;0.9;;;;;;;13.69;61.58789;939.6478;;;;
2023/03/20 13:19:57;;;;;;;1;1;;;;;;;13.69;61.84082;939.6365;;;;
2023/03/20 13:22:26;;;;;;;1.3;1.1;;;;;;;13.66;62.2627;939.6262;;;;
2023/03/20 13:24:54;;;;;;;0.9;0.9;;;;;;;13.68;62.71387;939.6766;;;;
2023/03/20 13:27:20;;;;;;;1.1;1;;;;;;;13.55;62.96973;939.6763;;;;
2023/03/20 13:29:45;;;;;;;1.1;1;;;;;;;13.6;61.36719;939.6995;;;;
2023/03/20 13:32:10;;;;;;;1.3;1.2;;;;;;;13.75;62.35449;939.6453;;;;
2023/03/20 13:34:39;;;;;;;1.4;1.2;;;;;;;13.76;63;939.7205;;;;
2023/03/20 13:37:04;;;;;;;1.7;1.4;;;;;;;13.79;61.29102;939.7325;;;;
2023/03/20 13:39:29;;;;;;;1.3;1.1;;;;;;;13.84;61.13672;939.7432;;;;
2023/03/20 13:41:56;;;;;;;1.3;0.9;;;;;;;13.67;61.58398;939.6781;;;;
2023/03/20 13:44:21;;;;;;;0.8;0.8;;;;;;;13.74;62.2041;939.8078;;;;
2023/03/20 13:46:46;;;;;;;1;0.9;;;;;;;13.93;60.2959;939.7936;;;;
2023/03/20 13:49:11;;;;;;;0.8;0.8;;;;;;;13.8;60.68164;939.7517;;;;
2023/03/20 13:51:36;;;;;;;1;1;;;;;;;13.81;59.9834;939.7886;;;;
2023/03/20 13:54:06;;;;;;;1;1;;;;;;;13.93;59.71094;939.788;;;;
2023/03/20 13:56:34;;;;;;;0.9;0.9;;;;;;;13.88;59.42676;939.7936;;;;
2023/03/20 13:59:01;;;;;;;1;0.9;;;;;;;13.57;61.29395;939.7891;;;;
2023/03/20 14:01:26;;;;;;;0.9;0.9;;;;;;;13.49;61.16797;939.7586;;;;
2023/03/20 14:03:51;;;;;;;1;1;;;;;;;13.45;61.38086;939.6498;;;;
2023/03/20 14:06:17;;;;;;;1;0.9;;;;;;;13.41;61.20313;939.7191;;;;
2023/03/20 14:08:43;;;;;;;0.9;0.9;;;;;;;13.15;64.04883;939.7302;;;;
2023/03/20 14:11:14;;;;;;;1.1;1;;;;;;;13.21;63.65527;939.6906;;;;
2023/03/20 14:13:44;;;;;;;1.5;1;;;;;;;13.17;64.56934;939.6494;;;;
2023/03/20 14:16:09;;;;;;;1.4;1.2;;;;;;;12.91;65.37988;939.671;;;;
2023/03/20 14:18:39;;;;;;;1.1;1;;;;;;;12.84;64.44043;939.7123;;;;
2023/03/20 14:21:04;;;;;;;1;1;;;;;;;12.66;66.75488;939.7626;;;;
2023/03/20 14:23:31;;;;;;;1.5;1.2;;;;;;;12.89;65.9502;939.7244;;;;
2023/03/20 14:25:58;;;;;;;0.9;0.9;;;;;;;12.91;65.75977;939.7253;;;;
2023/03/20 14:28:21;;;;;;;1.4;1;;;;;;;13.22;63.74902;939.7477;;;;
2023/03/20 14:30:50;;;;;;;1.9;1.3;;;;;;;13.13;64.5293;939.683;;;;
2023/03/20 14:33:19;;;;;;;1.1;1;;;;;;;13.44;63.79297;939.7075;;;;
2023/03/20 14:35:44;;;;;;;1;0.9;;;;;;;13.55;63.70605;939.697;;;;
2023/03/20 14:38:09;;;;;;;0.9;0.9;;;;;;;13.78;62.1416;939.6261;;;;
2023/03/20 14:40:38;;;;;;;0.9;0.9;;;;;;;14.02;62.40527;939.6368;;;;
2023/03/20 14:43:03;;;;;;;1.7;1;;;;;;;14.36;61.03711;939.6042;;;;
2023/03/20 14:45:32;;;;;;;2.7;1;;;;;;;14.45;60.46191;939.5974;;;;
2023/03/20 14:47:58;;;;;;;1;1;;;;;;;14.55;59.71387;939.6139;;;;